createdAt,value
2017-10-15T00:01:31.302Z,5.03
2017-10-15T00:03:58.703Z,4.73
2017-10-15T00:06:26.151Z,5.03
2017-10-15T00:08:54.785Z,4.17
2017-10-15T00:11:22.211Z,4.77
2017-10-15T00:13:49.606Z,4.70
2017-10-15T00:16:17.004Z,4.83
2017-10-15T00:18:44.441Z,4.63
2017-10-15T00:21:11.836Z,5.37
2017-10-15T00:23:39.255Z,4.10
2017-10-15T00:26:06.665Z,4.30
2017-10-15T00:28:34.082Z,3.87
2017-10-15T00:31:01.488Z,3.70
2017-10-15T00:33:28.905Z,4.30
2017-10-15T00:35:56.296Z,4.90
2017-10-15T00:38:23.694Z,3.93
2017-10-15T00:40:51.120Z,4.40
2017-10-15T00:43:18.516Z,3.53
2017-10-15T00:45:45.916Z,3.90
2017-10-15T00:48:13.318Z,3.30
2017-10-15T00:50:40.727Z,4.80
2017-10-15T00:53:08.158Z,3.93
2017-10-15T00:55:35.601Z,5.23
2017-10-15T00:58:03.025Z,3.40
2017-10-15T01:00:30.439Z,6.00
2017-10-15T01:02:57.868Z,5.20
2017-10-15T01:05:25.270Z,4.10
2017-10-15T01:07:52.699Z,4.43
2017-10-15T01:10:20.126Z,4.50
2017-10-15T01:12:47.543Z,4.10
2017-10-15T01:15:14.953Z,4.87
2017-10-15T01:17:42.360Z,4.30
2017-10-15T01:20:09.782Z,4.60
2017-10-15T01:22:37.209Z,3.60
2017-10-15T01:25:04.615Z,5.20
2017-10-15T01:27:32.031Z,5.80
2017-10-15T01:29:59.437Z,4.60
2017-10-15T01:32:27.580Z,4.30
2017-10-15T01:34:55.064Z,5.10
2017-10-15T01:37:22.812Z,5.00
2017-10-15T01:39:50.241Z,10.40
2017-10-15T01:42:17.643Z,9.37
2017-10-15T01:44:45.056Z,7.17
2017-10-15T01:47:12.570Z,5.70
2017-10-15T01:49:39.979Z,4.80
2017-10-15T01:52:08.098Z,4.27
2017-10-15T01:54:35.844Z,5.20
2017-10-15T01:57:03.235Z,3.80
2017-10-15T01:59:30.638Z,4.40
2017-10-15T02:01:58.061Z,5.33
2017-10-15T02:04:25.450Z,4.80
2017-10-15T02:06:52.871Z,4.40
2017-10-15T02:09:20.284Z,4.70
2017-10-15T02:11:47.693Z,4.33
2017-10-15T02:14:15.105Z,4.03
2017-10-15T02:16:42.500Z,5.30
2017-10-15T02:19:09.924Z,4.30
2017-10-15T02:21:37.831Z,4.77
2017-10-15T02:24:05.224Z,4.27
2017-10-15T02:26:32.644Z,4.80
2017-10-15T02:29:00.055Z,3.80
2017-10-15T02:31:27.457Z,6.00
2017-10-15T02:33:54.854Z,7.70
2017-10-15T02:36:22.268Z,7.30
2017-10-15T02:38:49.669Z,7.07
2017-10-15T02:41:17.457Z,5.50
2017-10-15T02:43:44.855Z,5.57
2017-10-15T02:46:12.253Z,4.13
2017-10-15T02:48:39.667Z,3.27
2017-10-15T02:51:07.064Z,5.23
2017-10-15T02:53:34.490Z,6.80
2017-10-15T02:56:01.890Z,6.87
2017-10-15T02:58:29.309Z,5.80
2017-10-15T03:00:56.703Z,5.27
2017-10-15T03:03:24.126Z,4.40
2017-10-15T03:05:51.526Z,5.40
2017-10-15T03:08:18.925Z,5.23
2017-10-15T03:10:46.338Z,4.43
2017-10-15T03:13:13.731Z,4.30
2017-10-15T03:15:41.137Z,4.13
2017-10-15T03:18:08.557Z,7.00
2017-10-15T03:20:36.321Z,6.97
2017-10-15T03:23:03.726Z,4.40
2017-10-15T03:25:31.128Z,6.30
2017-10-15T03:27:58.544Z,6.97
2017-10-15T03:30:25.946Z,5.70
2017-10-15T03:32:53.371Z,6.03
2017-10-15T03:35:21.624Z,5.30
2017-10-15T03:37:49.027Z,5.40
2017-10-15T03:40:16.426Z,4.80
2017-10-15T03:42:43.835Z,4.30
2017-10-15T03:45:11.255Z,5.13
2017-10-15T03:47:38.654Z,4.63
2017-10-15T03:50:06.425Z,5.57
2017-10-15T03:52:33.813Z,4.43
2017-10-15T03:55:01.214Z,4.93
2017-10-15T03:57:28.646Z,4.77
2017-10-15T03:59:56.045Z,4.80
2017-10-15T04:02:23.461Z,5.67
2017-10-15T04:04:50.869Z,5.60
2017-10-15T04:07:18.291Z,4.33
2017-10-15T04:09:45.692Z,4.40
2017-10-15T04:12:13.114Z,5.30
2017-10-15T04:14:40.525Z,4.80
2017-10-15T04:17:07.934Z,7.63
2017-10-15T04:19:35.341Z,5.97
2017-10-15T04:22:02.751Z,5.23
2017-10-15T04:24:30.178Z,5.30
2017-10-15T04:26:57.577Z,6.30
2017-10-15T04:29:24.987Z,6.37
2017-10-15T04:31:52.401Z,5.40
2017-10-15T04:34:19.809Z,5.33
2017-10-15T04:36:47.227Z,5.77
2017-10-15T04:39:14.629Z,4.33
2017-10-15T04:41:42.050Z,4.20
2017-10-15T04:44:09.450Z,4.80
2017-10-15T04:46:36.856Z,4.20
2017-10-15T04:49:04.267Z,4.07
2017-10-15T04:51:31.689Z,4.97
2017-10-15T04:53:59.101Z,4.50
2017-10-15T04:56:26.518Z,3.90
2017-10-15T04:58:53.915Z,3.93
2017-10-15T05:01:21.327Z,4.40
2017-10-15T05:03:48.753Z,3.97
2017-10-15T05:06:16.170Z,5.00
2017-10-15T05:08:43.583Z,5.47
2017-10-15T05:11:11.006Z,6.13
2017-10-15T05:13:38.415Z,5.60
2017-10-15T05:16:05.823Z,5.80
2017-10-15T05:18:33.243Z,6.13
2017-10-15T05:21:00.638Z,5.30
2017-10-15T05:23:28.040Z,6.43
2017-10-15T05:25:55.452Z,5.13
2017-10-15T05:28:22.881Z,5.73
2017-10-15T05:30:50.299Z,5.80
2017-10-15T05:33:17.689Z,5.20
2017-10-15T05:35:45.114Z,6.50
2017-10-15T05:38:12.521Z,6.50
2017-10-15T05:40:39.930Z,7.63
2017-10-15T05:43:07.703Z,5.97
2017-10-15T05:45:35.141Z,7.67
2017-10-15T05:48:02.573Z,6.10
2017-10-15T05:50:30.026Z,5.10
2017-10-15T05:52:57.418Z,5.37
2017-10-15T05:55:24.817Z,5.60
2017-10-15T05:57:52.237Z,4.90
2017-10-15T06:00:19.642Z,5.10
2017-10-15T06:02:47.064Z,5.17
2017-10-15T06:05:14.461Z,3.30
2017-10-15T06:07:41.948Z,4.93
2017-10-15T06:10:09.353Z,3.67
2017-10-15T06:12:36.769Z,3.30
2017-10-15T06:15:04.182Z,2.43
2017-10-15T06:17:31.600Z,3.83
2017-10-15T06:19:59.009Z,3.07
2017-10-15T06:22:26.413Z,3.03
2017-10-15T06:24:53.833Z,2.30
2017-10-15T06:27:21.254Z,3.10
2017-10-15T06:29:48.675Z,3.90
2017-10-15T06:32:16.098Z,2.77
2017-10-15T06:34:43.521Z,3.80
2017-10-15T06:37:10.925Z,4.43
2017-10-15T06:39:38.344Z,3.97
2017-10-15T06:42:05.748Z,8.30
2017-10-15T06:44:33.151Z,7.10
2017-10-15T06:47:00.560Z,5.60
2017-10-15T06:49:27.970Z,3.50
2017-10-15T06:51:55.391Z,3.20
2017-10-15T06:54:22.778Z,3.83
2017-10-15T06:56:50.230Z,3.37
2017-10-15T06:59:17.629Z,4.00
2017-10-15T07:01:45.074Z,2.90
2017-10-15T07:04:12.478Z,3.47
2017-10-15T07:06:39.877Z,3.27
2017-10-15T07:09:07.298Z,3.77
2017-10-15T07:11:34.696Z,4.33
2017-10-15T07:14:02.121Z,4.30
2017-10-15T07:16:29.523Z,5.27
2017-10-15T07:18:56.958Z,14.63
2017-10-15T07:21:24.372Z,10.93
2017-10-15T07:23:51.781Z,5.97
2017-10-15T07:26:19.205Z,4.53
2017-10-15T07:28:46.635Z,5.37
2017-10-15T07:31:14.038Z,3.53
2017-10-15T07:33:41.524Z,3.40
2017-10-15T07:36:08.945Z,4.30
2017-10-15T07:38:36.669Z,5.87
2017-10-15T07:41:04.134Z,4.30
2017-10-15T07:43:31.724Z,6.00
2017-10-15T07:45:59.139Z,5.50
2017-10-15T07:48:26.546Z,5.53
2017-10-15T07:50:53.981Z,12.23
2017-10-15T07:53:21.398Z,15.67
2017-10-15T07:55:48.820Z,6.40
2017-10-15T07:58:16.253Z,9.77
2017-10-15T08:00:43.678Z,13.27
2017-10-15T08:03:11.117Z,8.87
2017-10-15T08:05:38.572Z,6.60
2017-10-15T08:08:05.995Z,6.50
2017-10-15T08:10:33.414Z,6.10
2017-10-15T08:13:00.846Z,15.23
2017-10-15T08:15:28.265Z,8.53
2017-10-15T08:17:55.698Z,18.60
2017-10-15T08:20:23.420Z,9.83
2017-10-15T08:22:50.843Z,22.23
2017-10-15T08:25:18.272Z,16.67
2017-10-15T08:27:45.717Z,9.27
2017-10-15T08:30:13.141Z,11.33
2017-10-15T08:32:40.612Z,11.83
2017-10-15T08:35:08.065Z,11.10
2017-10-15T08:37:35.483Z,14.53
2017-10-15T08:40:02.918Z,13.63
2017-10-15T08:42:30.371Z,13.33
2017-10-15T08:44:57.788Z,11.77
2017-10-15T08:47:25.205Z,7.97
2017-10-15T08:49:52.653Z,16.00
2017-10-15T08:52:20.053Z,11.27
2017-10-15T08:54:47.475Z,18.33
2017-10-15T08:57:14.898Z,14.73
2017-10-15T08:59:42.346Z,16.80
2017-10-15T09:02:09.753Z,8.77
2017-10-15T09:04:37.218Z,9.20
2017-10-15T09:07:04.640Z,12.40
2017-10-15T09:09:32.053Z,13.70
2017-10-15T09:11:59.502Z,13.10
2017-10-15T09:14:27.045Z,12.47
2017-10-15T09:16:54.488Z,14.60
2017-10-15T09:19:21.907Z,9.50
2017-10-15T09:21:49.347Z,19.00
2017-10-15T09:24:16.766Z,14.63
2017-10-15T09:26:44.207Z,14.93
2017-10-15T09:29:11.674Z,7.90
2017-10-15T09:31:39.074Z,13.67
2017-10-15T09:34:06.546Z,12.13
2017-10-15T09:36:34.023Z,10.03
2017-10-15T09:39:01.485Z,10.27
2017-10-15T09:41:28.908Z,10.87
2017-10-15T09:43:56.370Z,14.70
2017-10-15T09:46:23.793Z,15.00
2017-10-15T09:48:51.246Z,7.80
2017-10-15T09:51:18.670Z,15.73
2017-10-15T09:53:46.089Z,16.30
2017-10-15T09:56:13.528Z,15.60
2017-10-15T09:58:40.945Z,9.67
2017-10-15T10:01:08.670Z,8.03
2017-10-15T10:03:36.084Z,11.00
2017-10-15T10:06:03.516Z,18.37
2017-10-15T10:08:30.937Z,17.60
2017-10-15T10:10:58.361Z,18.77
2017-10-15T10:13:25.790Z,17.97
2017-10-15T10:15:53.229Z,14.47
2017-10-15T10:18:20.658Z,18.20
2017-10-15T10:20:48.413Z,14.80
2017-10-15T10:23:15.872Z,10.43
2017-10-15T10:25:43.629Z,21.00
2017-10-15T10:28:11.054Z,20.43
2017-10-15T10:30:38.477Z,18.93
2017-10-15T10:33:05.907Z,23.73
2017-10-15T10:35:33.318Z,15.83
2017-10-15T10:38:00.764Z,23.80
2017-10-15T10:40:28.162Z,18.17
2017-10-15T10:42:55.604Z,19.93
2017-10-15T10:45:23.040Z,19.97
2017-10-15T10:47:50.462Z,11.13
2017-10-15T10:50:17.882Z,22.23
2017-10-15T10:52:45.337Z,22.63
2017-10-15T10:55:13.114Z,23.63
2017-10-15T10:57:40.599Z,13.13
2017-10-15T11:00:08.020Z,14.27
2017-10-15T11:02:35.445Z,20.07
2017-10-15T11:05:02.884Z,18.13
2017-10-15T11:07:30.397Z,10.80
2017-10-15T11:09:57.841Z,26.17
2017-10-15T11:12:25.278Z,18.13
2017-10-15T11:14:52.722Z,18.00
2017-10-15T11:17:20.189Z,13.07
2017-10-15T11:19:47.616Z,26.03
2017-10-15T11:22:15.024Z,15.30
2017-10-15T11:24:42.458Z,14.40
2017-10-15T11:27:09.873Z,27.57
2017-10-15T11:29:37.310Z,21.33
2017-10-15T11:32:04.755Z,22.17
2017-10-15T11:34:32.173Z,15.00
2017-10-15T11:36:59.619Z,26.33
2017-10-15T11:39:27.029Z,19.07
2017-10-15T11:41:54.448Z,15.40
2017-10-15T11:44:21.896Z,16.17
2017-10-15T11:46:49.302Z,12.17
2017-10-15T11:49:16.729Z,30.50
2017-10-15T11:51:44.157Z,16.33
2017-10-15T11:54:11.577Z,12.50
2017-10-15T11:56:39.011Z,22.70
2017-10-15T11:59:06.484Z,14.00
2017-10-15T12:01:33.939Z,20.70
2017-10-15T12:04:01.339Z,21.40
2017-10-15T12:06:28.853Z,20.80
2017-10-15T12:08:56.264Z,26.80
2017-10-15T12:11:24.127Z,16.07
2017-10-15T12:13:51.634Z,16.80
2017-10-15T12:16:19.888Z,14.37
2017-10-15T12:18:47.395Z,21.53
2017-10-15T12:21:14.869Z,20.03
2017-10-15T12:23:42.313Z,13.00
2017-10-15T12:26:09.768Z,18.07
2017-10-15T12:28:37.172Z,15.60
2017-10-15T12:31:04.662Z,17.80
2017-10-15T12:33:32.100Z,12.13
2017-10-15T12:35:59.543Z,18.03
2017-10-15T12:38:26.959Z,22.50
2017-10-15T12:40:54.685Z,22.87
2017-10-15T12:43:22.092Z,28.20
2017-10-15T12:45:49.550Z,27.00
2017-10-15T12:48:16.966Z,20.03
2017-10-15T12:50:44.392Z,19.13
2017-10-15T12:53:11.839Z,17.47
2017-10-15T12:55:39.278Z,15.27
2017-10-15T12:58:06.710Z,23.87
2017-10-15T13:00:34.169Z,15.73
2017-10-15T13:03:01.608Z,24.27
2017-10-15T13:05:29.027Z,22.90
2017-10-15T13:07:56.425Z,19.87
2017-10-15T13:10:23.912Z,22.50
2017-10-15T13:12:51.314Z,17.60
2017-10-15T13:15:18.750Z,23.73
2017-10-15T13:17:46.163Z,12.57
2017-10-15T13:20:13.595Z,17.97
2017-10-15T13:22:41.069Z,13.63
2017-10-15T13:25:08.517Z,11.93
2017-10-15T13:27:35.947Z,12.17
2017-10-15T13:30:03.368Z,10.60
2017-10-15T13:32:30.827Z,18.20
2017-10-15T13:34:58.254Z,16.17
2017-10-15T13:37:25.796Z,14.97
2017-10-15T13:39:53.203Z,16.53
2017-10-15T13:42:20.621Z,16.47
2017-10-15T13:44:48.093Z,16.00
2017-10-15T13:47:15.520Z,23.60
2017-10-15T13:49:42.951Z,15.83
2017-10-15T13:52:10.391Z,13.43
2017-10-15T13:54:37.890Z,14.77
2017-10-15T13:57:05.314Z,14.10
2017-10-15T13:59:32.760Z,19.90
2017-10-15T14:02:00.294Z,14.73
2017-10-15T14:04:27.741Z,17.20
2017-10-15T14:06:55.207Z,19.33
2017-10-15T14:09:22.646Z,17.00
2017-10-15T14:11:50.210Z,18.50
2017-10-15T14:14:17.634Z,16.90
2017-10-15T14:16:45.590Z,15.50
2017-10-15T14:19:12.998Z,13.87
2017-10-15T14:21:40.444Z,16.57
2017-10-15T14:24:07.910Z,17.77
2017-10-15T14:26:35.365Z,18.30
2017-10-15T14:29:02.795Z,24.97
2017-10-15T14:31:30.255Z,23.20
2017-10-15T14:33:57.729Z,17.00
2017-10-15T14:36:25.178Z,21.73
2017-10-15T14:38:52.626Z,14.83
2017-10-15T14:41:20.080Z,13.40
2017-10-15T14:43:47.518Z,22.00
2017-10-15T14:46:14.951Z,18.67
2017-10-15T14:48:42.457Z,21.57
2017-10-15T14:51:09.909Z,18.37
2017-10-15T14:53:37.335Z,19.13
2017-10-15T14:56:04.761Z,14.70
2017-10-15T14:58:32.196Z,18.13
2017-10-15T15:00:59.993Z,25.80
2017-10-15T15:03:27.415Z,14.80
2017-10-15T15:05:54.874Z,13.00
2017-10-15T15:08:22.313Z,11.23
2017-10-15T15:10:49.715Z,17.03
2017-10-15T15:13:17.927Z,19.60
2017-10-15T15:15:45.334Z,12.53
2017-10-15T15:18:12.762Z,15.63
2017-10-15T15:20:40.189Z,22.03
2017-10-15T15:23:07.653Z,15.40
2017-10-15T15:25:35.135Z,14.20
2017-10-15T15:28:02.562Z,13.70
2017-10-15T15:30:30.012Z,11.97
2017-10-15T15:32:57.529Z,22.30
2017-10-15T15:35:25.318Z,16.90
2017-10-15T15:37:52.745Z,13.20
2017-10-15T15:40:20.180Z,33.37
2017-10-15T15:42:47.607Z,31.43
2017-10-15T15:45:15.073Z,27.50
2017-10-15T15:47:42.554Z,20.13
2017-10-15T15:50:10.059Z,20.67
2017-10-15T15:52:37.546Z,19.73
2017-10-15T15:55:04.997Z,13.57
2017-10-15T15:57:32.475Z,13.60
2017-10-15T15:59:59.952Z,12.90
2017-10-15T16:02:27.439Z,13.60
2017-10-15T16:04:54.884Z,13.33
2017-10-15T16:07:22.349Z,11.67
2017-10-15T16:09:49.833Z,15.33
2017-10-15T16:12:17.246Z,13.40
2017-10-15T16:14:44.974Z,16.97
2017-10-15T16:17:12.386Z,21.73
2017-10-15T16:19:39.888Z,25.57
2017-10-15T16:22:07.360Z,19.30
2017-10-15T16:24:34.818Z,16.03
2017-10-15T16:27:02.270Z,16.27
2017-10-15T16:29:29.704Z,19.33
2017-10-15T16:31:57.211Z,19.47
2017-10-15T16:34:24.676Z,16.60
2017-10-15T16:36:52.100Z,23.40
2017-10-15T16:39:19.905Z,23.87
2017-10-15T16:41:47.374Z,23.73
2017-10-15T16:44:15.635Z,19.17
2017-10-15T16:46:43.147Z,14.37
2017-10-15T16:49:10.597Z,17.60
2017-10-15T16:51:38.008Z,24.73
2017-10-15T16:54:05.444Z,26.23
2017-10-15T16:56:32.891Z,27.67
2017-10-15T16:59:00.284Z,24.70
2017-10-15T17:01:27.775Z,24.67
2017-10-15T17:03:55.245Z,25.73
2017-10-15T17:06:22.668Z,26.20
2017-10-15T17:08:50.101Z,22.23
2017-10-15T17:11:17.586Z,26.90
2017-10-15T17:13:45.058Z,23.23
2017-10-15T17:16:12.535Z,24.70
2017-10-15T17:18:39.998Z,26.70
2017-10-15T17:21:07.431Z,26.60
2017-10-15T17:23:34.902Z,26.20
2017-10-15T17:26:02.347Z,29.40
2017-10-15T17:28:29.797Z,25.97
2017-10-15T17:30:57.231Z,24.80
2017-10-15T17:33:24.645Z,29.63
2017-10-15T17:35:52.069Z,28.50
2017-10-15T17:38:19.543Z,38.63
2017-10-15T17:40:46.954Z,32.50
2017-10-15T17:43:14.379Z,86.07
2017-10-15T17:45:41.804Z,249.70
2017-10-15T17:48:09.610Z,80.90
2017-10-15T17:50:37.072Z,46.27
2017-10-15T17:53:04.553Z,30.77
2017-10-15T17:55:31.986Z,38.03
2017-10-15T17:57:59.497Z,26.50
2017-10-15T18:00:26.948Z,40.87
2017-10-15T18:02:54.404Z,33.93
2017-10-15T18:05:21.911Z,28.60
2017-10-15T18:07:49.566Z,23.90
2017-10-15T18:10:17.005Z,32.27
2017-10-15T18:12:44.490Z,25.23
2017-10-15T18:15:12.535Z,21.90
2017-10-15T18:17:40.048Z,30.20
2017-10-15T18:20:07.476Z,27.73
2017-10-15T18:22:34.961Z,27.30
2017-10-15T18:25:02.395Z,28.33
2017-10-15T18:27:29.825Z,28.40
2017-10-15T18:29:57.284Z,28.57
2017-10-15T18:32:24.758Z,29.57
2017-10-15T18:34:52.216Z,31.00
2017-10-15T18:37:19.643Z,27.27
2017-10-15T18:39:47.058Z,28.90
2017-10-15T18:42:14.485Z,30.63
2017-10-15T18:44:41.962Z,35.97
2017-10-15T18:47:09.688Z,29.20
2017-10-15T18:49:37.147Z,30.63
2017-10-15T18:52:04.570Z,34.77
2017-10-15T18:54:31.998Z,34.03
2017-10-15T18:56:59.414Z,37.27
2017-10-15T18:59:26.875Z,35.80
2017-10-15T19:01:54.303Z,36.30
2017-10-15T19:04:21.734Z,28.70
2017-10-15T19:06:49.182Z,27.80
2017-10-15T19:09:16.675Z,29.97
2017-10-15T19:11:44.488Z,28.70
2017-10-15T19:14:11.914Z,23.27
2017-10-15T19:16:39.326Z,33.93
2017-10-15T19:19:06.780Z,30.93
2017-10-15T19:21:34.193Z,88.23
2017-10-15T19:24:01.806Z,43.87
2017-10-15T19:26:29.230Z,32.83
2017-10-15T19:28:56.758Z,27.10
2017-10-15T19:31:24.255Z,23.90
2017-10-15T19:33:51.716Z,29.70
2017-10-15T19:36:19.164Z,36.00
2017-10-15T19:38:46.610Z,30.30
2017-10-15T19:41:14.068Z,30.60
2017-10-15T19:43:41.665Z,31.17
2017-10-15T19:46:09.175Z,34.00
2017-10-15T19:48:36.624Z,29.87
2017-10-15T19:51:04.061Z,24.97
2017-10-15T19:53:31.537Z,30.77
2017-10-15T19:55:58.964Z,28.13
2017-10-15T19:58:26.415Z,29.37
2017-10-15T20:00:53.886Z,30.47
2017-10-15T20:03:21.314Z,30.77
2017-10-15T20:05:48.740Z,22.90
2017-10-15T20:08:16.174Z,149.87
2017-10-15T20:10:43.647Z,74.00
2017-10-15T20:13:11.085Z,43.83
2017-10-15T20:15:38.526Z,32.37
2017-10-15T20:18:05.957Z,27.00
2017-10-15T20:20:34.908Z,33.97
2017-10-15T20:23:02.359Z,31.77
2017-10-15T20:25:29.780Z,30.80
2017-10-15T20:27:57.208Z,31.30
2017-10-15T20:30:24.664Z,34.00
2017-10-15T20:32:52.059Z,32.60
2017-10-15T20:35:19.520Z,30.07
2017-10-15T20:37:46.946Z,28.10
2017-10-15T20:40:14.432Z,24.30
2017-10-15T20:42:41.881Z,19.90
2017-10-15T20:45:09.333Z,16.87
2017-10-15T20:47:36.791Z,22.50
2017-10-15T20:50:04.596Z,32.30
2017-10-15T20:52:32.078Z,25.43
2017-10-15T20:54:59.520Z,24.33
2017-10-15T20:57:26.940Z,27.63
2017-10-15T20:59:54.363Z,26.60
2017-10-15T21:02:21.814Z,30.17
2017-10-15T21:04:49.470Z,26.20
2017-10-15T21:07:16.921Z,32.70
2017-10-15T21:09:44.329Z,28.90
2017-10-15T21:12:11.794Z,23.57
2017-10-15T21:14:39.234Z,18.83
2017-10-15T21:17:06.641Z,17.00
2017-10-15T21:19:34.074Z,17.57
2017-10-15T21:22:01.502Z,19.30
2017-10-15T21:24:28.979Z,21.67
2017-10-15T21:26:56.409Z,17.40
2017-10-15T21:29:23.844Z,21.10
2017-10-15T21:31:51.254Z,20.60
2017-10-15T21:34:18.737Z,16.37
2017-10-15T21:36:46.139Z,15.30
2017-10-15T21:39:13.585Z,16.87
2017-10-15T21:41:41.025Z,23.97
2017-10-15T21:44:08.467Z,20.50
2017-10-15T21:46:35.890Z,18.67
2017-10-15T21:49:03.322Z,17.90
2017-10-15T21:51:30.753Z,22.27
2017-10-15T21:53:58.158Z,20.93
2017-10-15T21:56:25.596Z,23.00
2017-10-15T21:58:53.009Z,16.73
2017-10-15T22:01:20.417Z,30.00
2017-10-15T22:03:47.854Z,32.00
2017-10-15T22:06:15.273Z,29.47
2017-10-15T22:08:42.697Z,24.10
2017-10-15T22:11:10.103Z,26.10
2017-10-15T22:13:37.538Z,41.80
2017-10-15T22:16:04.958Z,40.23
2017-10-15T22:18:38.466Z,33.40
2017-10-15T22:21:11.351Z,28.37
2017-10-15T22:23:38.779Z,30.70
2017-10-15T22:26:06.174Z,41.03
2017-10-15T22:28:33.593Z,44.80
2017-10-15T22:31:01.035Z,43.30
2017-10-15T22:33:28.483Z,42.50
2017-10-15T22:35:55.946Z,41.93
2017-10-15T22:38:23.376Z,31.10
2017-10-15T22:40:50.801Z,36.97
2017-10-15T22:43:18.227Z,33.90
2017-10-15T22:45:45.675Z,27.27
2017-10-15T22:48:13.124Z,28.67
2017-10-15T22:50:40.526Z,36.53
2017-10-15T22:53:07.961Z,28.97
2017-10-15T22:55:35.398Z,30.90
2017-10-15T22:58:02.872Z,26.90
2017-10-15T23:00:30.294Z,27.20
2017-10-15T23:02:57.768Z,44.23
2017-10-15T23:05:25.217Z,43.57
2017-10-15T23:07:52.623Z,48.00
2017-10-15T23:10:20.360Z,47.10
2017-10-15T23:12:47.787Z,43.10
2017-10-15T23:15:15.188Z,42.57
2017-10-15T23:17:42.649Z,38.50
2017-10-15T23:20:10.068Z,38.50
2017-10-15T23:22:37.488Z,41.30
2017-10-15T23:25:04.902Z,39.63
2017-10-15T23:27:32.366Z,44.67
2017-10-15T23:29:59.780Z,37.53
2017-10-15T23:32:27.222Z,35.97
2017-10-15T23:34:54.642Z,41.53
2017-10-15T23:37:22.038Z,37.77
2017-10-15T23:39:49.494Z,44.43
2017-10-15T23:42:16.918Z,43.60
2017-10-15T23:44:44.354Z,41.00
2017-10-15T23:47:11.764Z,39.30
2017-10-15T23:49:39.243Z,39.87
2017-10-15T23:52:06.682Z,33.53
2017-10-15T23:54:34.111Z,29.73
2017-10-15T23:57:01.578Z,35.53
2017-10-15T23:59:28.998Z,40.30
